Time;durP1;ratioP1;P1;durP2;ratioP2;P2;SDS_P1;SDS_P2;PMS_P1;PMS_P2;Temp;Humidity;BMP_temperature;BMP_pressure;BME280_temperature;BME280_humidity;BME280_pressure;Samples;Min_cycle;Max_cycle;Signal;HPM_P1;HPM_P2
2022/09/30 00:02:18;;;;;;;6.70;0.60;;;10.40;99.90;;;;;;5036568;28;20463;-76
2022/09/30 00:04:45;;;;;;;1.80;0.80;;;10.50;99.90;;;;;;5039271;28;20479;-76
2022/09/30 00:07:12;;;;;;;1.00;0.67;;;10.50;99.90;;;;;;5035770;28;20467;-76
2022/09/30 00:09:40;;;;;;;1.33;0.77;;;10.50;99.90;;;;;;5038934;28;20884;-76
2022/09/30 00:12:07;;;;;;;0.97;0.70;;;10.50;99.90;;;;;;5035056;28;20462;-76
2022/09/30 00:14:34;;;;;;;0.90;0.60;;;10.60;99.30;;;;;;5038677;28;20490;-76
2022/09/30 00:17:00;;;;;;;1.07;0.70;;;10.60;97.70;;;;;;5036648;28;20452;-76
2022/09/30 00:19:27;;;;;;;1.90;0.80;;;10.50;99.00;;;;;;5038268;28;20512;-77
2022/09/30 00:21:54;;;;;;;1.20;0.70;;;10.60;99.90;;;;;;5035802;28;20452;-76
2022/09/30 00:24:21;;;;;;;2.93;0.73;;;10.60;99.90;;;;;;5037595;28;20469;-76
2022/09/30 00:26:49;;;;;;;2.97;0.83;;;10.70;99.90;;;;;;5034686;28;20456;-76
2022/09/30 00:29:16;;;;;;;1.13;0.60;;;10.80;99.20;;;;;;5038541;28;20499;-76
2022/09/30 00:31:43;;;;;;;3.10;0.90;;;11.00;96.80;;;;;;5036682;28;20884;-76
2022/09/30 00:34:10;;;;;;;2.90;0.80;;;11.10;91.20;;;;;;5037135;28;20480;-76
2022/09/30 00:36:42;;;;;;;3.40;0.80;;;11.10;77.10;;;;;;5035078;28;20471;-76
2022/09/30 00:39:10;;;;;;;0.93;0.70;;;10.80;93.30;;;;;;5037118;28;20447;-76
2022/09/30 00:41:38;;;;;;;2.60;0.70;;;10.80;97.00;;;;;;5035205;28;20519;-76
2022/09/30 00:44:37;;;;;;;1.40;0.67;;;10.80;99.90;;;;;;5037602;28;20472;-76
2022/09/30 00:47:17;;;;;;;1.50;0.77;;;10.90;97.80;;;;;;5035920;28;20496;-76
2022/09/30 00:49:44;;;;;;;1.93;0.90;;;10.90;95.50;;;;;;5038737;28;20448;-76
2022/09/30 00:52:11;;;;;;;1.30;0.73;;;10.90;96.10;;;;;;5036088;28;20884;-76
2022/09/30 00:54:38;;;;;;;1.30;0.80;;;10.90;97.70;;;;;;5038446;28;20490;-76
2022/09/30 00:57:06;;;;;;;0.90;0.67;;;10.90;94.40;;;;;;5033681;28;20460;-76
2022/09/30 00:59:38;;;;;;;1.70;0.70;;;10.80;93.90;;;;;;5037988;28;20515;-76
2022/09/30 01:02:06;;;;;;;1.73;0.80;;;10.70;97.20;;;;;;5036369;28;20464;-76
2022/09/30 01:04:34;;;;;;;1.10;0.80;;;10.70;99.90;;;;;;5037875;28;20471;-76
2022/09/30 01:07:03;;;;;;;1.53;0.90;;;10.70;99.90;;;;;;5035945;28;20452;-76
2022/09/30 01:09:31;;;;;;;1.10;0.80;;;10.70;99.90;;;;;;5038687;28;20447;-77
2022/09/30 01:11:58;;;;;;;1.10;0.70;;;10.70;99.90;;;;;;5034889;28;20462;-76
2022/09/30 01:14:27;;;;;;;1.10;0.90;;;10.70;99.90;;;;;;5037127;28;20515;-76
2022/09/30 01:17:05;;;;;;;1.00;0.70;;;10.80;99.90;;;;;;5034365;28;20444;-76
2022/09/30 01:20:03;;;;;;;2.93;0.70;;;10.90;99.90;;;;;;5036344;28;20480;-76
2022/09/30 01:22:43;;;;;;;1.23;0.70;;;10.90;99.90;;;;;;5033094;28;20543;-76
2022/09/30 01:25:46;;;;;;;1.33;0.80;;;10.80;97.00;;;;;;5036072;28;20448;-77
2022/09/30 01:28:37;;;;;;;1.50;0.90;;;10.80;98.60;;;;;;5016598;28;20462;-76
2022/09/30 01:31:17;;;;;;;3.90;0.70;;;10.90;99.00;;;;;;5034600;28;20838;-76
2022/09/30 01:33:51;;;;;;;3.70;0.80;;;11.00;95.70;;;;;;5037120;28;20741;-76
2022/09/30 01:36:30;;;;;;;3.70;0.73;;;11.00;93.10;;;;;;5034935;28;20554;-76
2022/09/30 01:39:07;;;;;;;1.10;0.70;;;11.00;88.10;;;;;;5037760;28;20452;-76
2022/09/30 01:41:41;;;;;;;2.53;0.90;;;10.90;92.40;;;;;;5034911;28;20766;-76
2022/09/30 01:44:14;;;;;;;2.03;1.00;;;10.80;96.10;;;;;;5037187;28;20547;-76
2022/09/30 01:46:44;;;;;;;1.50;0.90;;;10.80;99.00;;;;;;5034347;28;20555;-76
2022/09/30 01:49:20;;;;;;;1.93;1.03;;;10.80;99.90;;;;;;5037351;28;20926;-76
2022/09/30 01:51:55;;;;;;;1.40;0.90;;;10.80;99.90;;;;;;5034166;28;20460;-76
2022/09/30 01:54:29;;;;;;;2.10;1.10;;;10.80;99.90;;;;;;5037591;28;20961;-76
2022/09/30 01:57:03;;;;;;;1.10;0.90;;;10.80;99.90;;;;;;5035031;28;20458;-76
2022/09/30 01:59:36;;;;;;;1.40;0.80;;;10.80;99.90;;;;;;5037318;28;20453;-76
2022/09/30 02:02:09;;;;;;;1.37;0.90;;;10.70;99.90;;;;;;5034809;28;20448;-76
2022/09/30 02:04:41;;;;;;;2.03;0.90;;;10.70;99.90;;;;;;5036728;28;20448;-76
2022/09/30 02:07:13;;;;;;;1.97;0.90;;;10.70;99.90;;;;;;5031278;28;20456;-76
2022/09/30 02:09:47;;;;;;;1.90;1.07;;;10.80;99.90;;;;;;5034191;28;20452;-76
2022/09/30 02:12:18;;;;;;;2.17;0.90;;;10.80;99.90;;;;;;5030392;28;20501;-76
2022/09/30 02:14:50;;;;;;;1.87;1.00;;;10.70;99.90;;;;;;5032949;28;20484;-76
2022/09/30 02:17:22;;;;;;;3.90;1.00;;;10.60;99.90;;;;;;5034957;28;20764;-76
2022/09/30 02:19:54;;;;;;;2.10;1.00;;;10.60;99.90;;;;;;5039591;28;20958;-76
2022/09/30 02:22:26;;;;;;;3.00;1.30;;;10.60;99.90;;;;;;5035913;28;20742;-76
2022/09/30 02:24:59;;;;;;;3.40;1.07;;;10.50;99.90;;;;;;5040197;28;20499;-76
2022/09/30 02:27:30;;;;;;;3.20;1.20;;;10.50;99.90;;;;;;5038488;28;20547;-76
2022/09/30 02:30:00;;;;;;;1.50;1.20;;;10.50;99.90;;;;;;5041340;28;20452;-76
2022/09/30 02:32:34;;;;;;;1.90;1.10;;;10.40;99.90;;;;;;5039414;28;20463;-76
2022/09/30 02:35:06;;;;;;;3.30;1.10;;;10.40;99.90;;;;;;5041714;28;20488;-76
2022/09/30 02:37:36;;;;;;;3.70;1.10;;;10.50;99.90;;;;;;5037296;28;20569;-76
2022/09/30 02:40:09;;;;;;;3.00;1.80;;;10.60;99.90;;;;;;5040487;28;20927;-76
2022/09/30 02:42:37;;;;;;;2.97;1.10;;;10.70;99.90;;;;;;5036375;28;20487;-76
2022/09/30 02:45:09;;;;;;;5.70;1.10;;;10.80;99.90;;;;;;5040355;28;20926;-76
2022/09/30 02:47:50;;;;;;;1.43;0.87;;;10.80;99.90;;;;;;5037556;28;20460;-76
2022/09/30 02:50:21;;;;;;;1.43;0.80;;;10.90;99.90;;;;;;5039008;28;20822;-74
2022/09/30 02:53:00;;;;;;;2.50;0.90;;;10.90;99.90;;;;;;5040333;28;20452;-76
2022/09/30 02:55:31;;;;;;;1.20;0.90;;;10.90;99.90;;;;;;5037635;28;20770;-77
2022/09/30 02:58:06;;;;;;;1.13;0.80;;;10.90;99.90;;;;;;5040510;28;20452;-76
2022/09/30 03:00:34;;;;;;;1.87;0.80;;;10.80;99.90;;;;;;5036464;28;20448;-76
2022/09/30 03:03:08;;;;;;;3.67;0.90;;;10.80;99.90;;;;;;5040209;28;20503;-76
2022/09/30 03:05:35;;;;;;;1.53;0.83;;;10.80;99.90;;;;;;5036349;28;20741;-76
2022/09/30 03:08:02;;;;;;;1.30;0.80;;;10.80;99.90;;;;;;5039294;28;20454;-76
2022/09/30 03:10:30;;;;;;;1.67;1.00;;;10.70;99.90;;;;;;5037383;28;20448;-76
2022/09/30 03:13:23;;;;;;;1.53;0.97;;;10.80;99.90;;;;;;5040197;28;20463;-76
2022/09/30 03:16:02;;;;;;;1.77;0.90;;;10.80;99.90;;;;;;5037722;28;20914;-76
2022/09/30 03:18:48;;;;;;;2.73;1.00;;;10.80;99.90;;;;;;5040481;28;20447;-76
2022/09/30 03:21:30;;;;;;;2.10;0.80;;;10.80;99.90;;;;;;5035917;28;20728;-76
2022/09/30 03:24:21;;;;;;;1.60;0.80;;;10.70;99.90;;;;;;5038323;28;20447;-76
2022/09/30 03:26:56;;;;;;;2.00;0.80;;;10.70;99.90;;;;;;5018154;28;20735;-76
2022/09/30 03:29:34;;;;;;;1.63;0.90;;;10.70;99.90;;;;;;5037541;28;20450;-76
2022/09/30 03:32:10;;;;;;;3.13;0.80;;;10.60;99.90;;;;;;5034652;28;20968;-76
2022/09/30 03:34:50;;;;;;;1.10;0.80;;;10.60;99.90;;;;;;5037782;28;20530;-76
2022/09/30 03:37:25;;;;;;;3.40;0.70;;;10.60;99.90;;;;;;5036663;28;20478;-76
2022/09/30 03:39:59;;;;;;;1.20;0.87;;;10.70;99.90;;;;;;5039627;28;20930;-76
2022/09/30 03:42:33;;;;;;;1.50;0.83;;;10.80;99.90;;;;;;5037319;28;20480;-76
2022/09/30 03:45:04;;;;;;;2.50;1.00;;;10.70;99.90;;;;;;5039762;28;20499;-76
2022/09/30 03:47:33;;;;;;;1.57;1.27;;;10.70;99.90;;;;;;5037177;28;20824;-76
2022/09/30 03:50:06;;;;;;;1.67;0.90;;;10.70;99.90;;;;;;5038529;28;20539;-76
2022/09/30 03:52:35;;;;;;;1.57;1.00;;;10.60;99.90;;;;;;5035667;28;20540;-76
2022/09/30 03:55:04;;;;;;;1.30;1.03;;;10.40;99.90;;;;;;5038652;28;20959;-76
2022/09/30 03:57:31;;;;;;;2.47;1.30;;;10.40;99.90;;;;;;5036883;28;20884;-76
2022/09/30 03:59:59;;;;;;;1.80;1.10;;;10.40;99.90;;;;;;5038755;28;20495;-76
2022/09/30 04:02:27;;;;;;;1.93;1.10;;;10.30;99.90;;;;;;5036766;28;20456;-76
2022/09/30 04:04:53;;;;;;;1.63;1.30;;;10.10;99.90;;;;;;5038866;28;20764;-76
2022/09/30 04:07:22;;;;;;;4.50;1.40;;;10.00;99.90;;;;;;5035248;28;20456;-76
2022/09/30 04:09:48;;;;;;;3.03;1.17;;;9.90;99.90;;;;;;5038798;28;20448;-76
2022/09/30 04:12:15;;;;;;;6.23;1.60;;;9.70;99.90;;;;;;5036763;28;20914;-76
2022/09/30 04:14:42;;;;;;;1.70;1.20;;;9.60;99.90;;;;;;5038333;28;20530;-76
2022/09/30 04:17:09;;;;;;;2.60;1.10;;;9.50;99.90;;;;;;5036430;28;20506;-76
2022/09/30 04:19:38;;;;;;;1.57;1.10;;;9.50;99.90;;;;;;5038632;28;20923;-76
2022/09/30 04:22:06;;;;;;;2.70;1.40;;;9.50;99.90;;;;;;5034494;28;20444;-76
2022/09/30 04:24:35;;;;;;;1.90;1.30;;;9.50;99.90;;;;;;5037447;28;20437;-76
2022/09/30 04:27:02;;;;;;;2.23;1.10;;;9.40;99.90;;;;;;5034455;28;20559;-76
2022/09/30 04:29:29;;;;;;;1.50;1.10;;;9.40;99.90;;;;;;5037884;28;20871;-76
2022/09/30 04:31:56;;;;;;;3.17;1.40;;;9.50;99.90;;;;;;5033826;28;20463;-76
2022/09/30 04:34:23;;;;;;;2.50;1.13;;;9.50;99.90;;;;;;5037655;28;20476;-76
2022/09/30 04:36:50;;;;;;;2.10;1.20;;;9.60;99.90;;;;;;5035720;28;20456;-76
2022/09/30 04:39:17;;;;;;;3.17;1.30;;;9.70;99.90;;;;;;5039241;28;20504;-76
2022/09/30 04:41:45;;;;;;;1.93;1.20;;;9.70;99.90;;;;;;5035771;28;20490;-76
2022/09/30 04:44:12;;;;;;;2.90;1.37;;;9.90;99.90;;;;;;5037524;28;20531;-76
2022/09/30 04:46:39;;;;;;;2.37;1.30;;;10.10;99.90;;;;;;5034182;28;20522;-76
2022/09/30 04:49:07;;;;;;;2.80;1.13;;;10.20;99.90;;;;;;5037658;28;20547;-76
2022/09/30 04:51:36;;;;;;;1.97;1.20;;;10.30;99.90;;;;;;5035574;28;20463;-76
2022/09/30 04:54:03;;;;;;;2.80;1.10;;;10.20;99.90;;;;;;5037866;28;20495;-76
2022/09/30 04:56:29;;;;;;;1.40;1.00;;;10.10;99.90;;;;;;5033666;28;20452;-76
2022/09/30 04:58:58;;;;;;;3.40;1.20;;;10.10;99.90;;;;;;5038092;28;20547;-76
2022/09/30 05:01:24;;;;;;;1.60;1.07;;;10.10;99.90;;;;;;5034060;28;20456;-76
2022/09/30 05:03:51;;;;;;;2.20;1.10;;;10.00;99.90;;;;;;5037216;28;20494;-76
2022/09/30 05:06:19;;;;;;;2.20;1.27;;;9.90;99.90;;;;;;5034888;28;20464;-76
2022/09/30 05:08:47;;;;;;;2.60;1.07;;;9.80;99.90;;;;;;5038221;28;20868;-76
2022/09/30 05:11:17;;;;;;;2.40;0.90;;;9.70;99.90;;;;;;5034910;28;20784;-76
2022/09/30 05:13:44;;;;;;;1.93;0.90;;;9.60;99.90;;;;;;5037234;28;20514;-75
2022/09/30 05:16:13;;;;;;;2.80;1.17;;;9.40;99.90;;;;;;5037997;28;20583;-77
2022/09/30 05:18:44;;;;;;;1.83;1.13;;;9.40;99.90;;;;;;5037776;28;20463;-76
2022/09/30 05:21:11;;;;;;;3.53;1.30;;;9.50;99.90;;;;;;5037180;28;20689;-76
2022/09/30 05:23:38;;;;;;;3.03;1.10;;;9.60;99.90;;;;;;5033654;28;20824;-76
2022/09/30 05:26:06;;;;;;;3.97;1.40;;;9.60;99.90;;;;;;5036631;28;20816;-77
2022/09/30 05:28:33;;;;;;;2.53;1.17;;;9.60;99.90;;;;;;5032004;28;20463;-76
2022/09/30 05:31:01;;;;;;;4.00;1.20;;;9.60;99.90;;;;;;5034308;28;21068;-77
2022/09/30 05:33:30;;;;;;;1.73;1.20;;;9.50;99.90;;;;;;5032077;28;20456;-78
2022/09/30 05:36:00;;;;;;;3.07;1.10;;;9.40;99.90;;;;;;5048097;28;20458;-78
2022/09/30 05:38:27;;;;;;;1.70;1.07;;;9.40;99.90;;;;;;5055177;28;20455;-76
2022/09/30 05:40:56;;;;;;;2.20;1.20;;;9.40;99.90;;;;;;5059326;28;20474;-77
2022/09/30 05:43:23;;;;;;;2.90;1.20;;;9.40;99.90;;;;;;5054295;28;20475;-77
2022/09/30 05:45:54;;;;;;;2.27;1.10;;;9.40;99.90;;;;;;5068795;28;20470;-79
2022/09/30 05:48:22;;;;;;;2.33;1.40;;;9.40;99.90;;;;;;5068231;28;20482;-79
2022/09/30 05:50:54;;;;;;;4.67;1.40;;;9.40;99.90;;;;;;5093895;28;20438;-79
2022/09/30 05:53:21;;;;;;;1.73;1.27;;;9.40;99.90;;;;;;5091221;28;20494;-79
2022/09/30 05:55:49;;;;;;;5.57;1.60;;;9.40;99.90;;;;;;5074828;28;20503;-79
2022/09/30 05:58:17;;;;;;;2.47;1.40;;;9.40;99.90;;;;;;5080442;28;20517;-79
2022/09/30 06:00:45;;;;;;;3.73;1.70;;;9.40;99.90;;;;;;5078400;28;20459;-79
2022/09/30 06:03:13;;;;;;;3.40;1.50;;;9.40;99.90;;;;;;5079973;28;20470;-79
2022/09/30 06:05:40;;;;;;;2.90;1.17;;;9.40;99.90;;;;;;5062894;28;20458;-76
2022/09/30 06:08:11;;;;;;;2.00;1.10;;;9.40;99.90;;;;;;5073889;28;20486;-76
2022/09/30 06:10:41;;;;;;;2.60;1.10;;;9.40;99.90;;;;;;5066932;28;20478;-76
2022/09/30 06:13:08;;;;;;;3.33;1.40;;;9.50;99.90;;;;;;5078259;28;20447;-77
2022/09/30 06:15:36;;;;;;;4.23;1.50;;;9.50;99.90;;;;;;5082203;28;20525;-76
2022/09/30 06:18:04;;;;;;;2.33;1.30;;;9.60;99.90;;;;;;5077769;28;20443;-76
2022/09/30 06:20:31;;;;;;;3.93;1.70;;;9.80;99.90;;;;;;5057352;28;20538;-77
2022/09/30 06:23:02;;;;;;;3.87;1.53;;;9.90;99.90;;;;;;5062419;28;20471;-76
2022/09/30 06:25:31;;;;;;;5.17;1.60;;;10.10;99.90;;;;;;5056983;28;20534;-77
2022/09/30 06:27:58;;;;;;;4.80;1.83;;;10.10;99.90;;;;;;5072014;28;20473;-78
2022/09/30 06:30:25;;;;;;;6.00;1.70;;;10.10;99.90;;;;;;5063271;28;20454;-77
2022/09/30 06:32:56;;;;;;;3.20;1.40;;;10.20;99.90;;;;;;5079861;28;20462;-77
2022/09/30 06:35:26;;;;;;;2.97;1.10;;;10.30;99.90;;;;;;5077987;28;20494;-78
2022/09/30 06:37:53;;;;;;;2.20;1.30;;;10.40;99.90;;;;;;5074791;28;20450;-78
2022/09/30 06:40:20;;;;;;;3.17;1.30;;;10.50;99.90;;;;;;5084465;28;20488;-76
2022/09/30 06:42:49;;;;;;;2.90;1.60;;;10.60;99.90;;;;;;5060099;28;20482;-77
2022/09/30 06:45:17;;;;;;;3.40;1.50;;;10.60;99.90;;;;;;5059854;28;20440;-77
2022/09/30 06:47:45;;;;;;;1.60;1.13;;;10.40;99.90;;;;;;5068033;28;20455;-77
2022/09/30 06:50:12;;;;;;;3.33;1.20;;;10.30;99.90;;;;;;5064761;28;20439;-76
2022/09/30 06:52:39;;;;;;;2.70;1.47;;;10.30;99.90;;;;;;5060054;28;20519;-76
2022/09/30 06:55:06;;;;;;;5.23;1.90;;;10.20;99.90;;;;;;5070136;28;20474;-76
2022/09/30 06:57:34;;;;;;;5.93;1.90;;;10.20;99.90;;;;;;5058814;28;20446;-76
2022/09/30 07:00:04;;;;;;;4.10;2.03;;;10.10;99.90;;;;;;5066437;28;20475;-76
2022/09/30 07:02:33;;;;;;;4.53;2.13;;;10.50;99.90;;;;;;5055229;28;20543;-75
2022/09/30 07:05:00;;;;;;;3.50;1.80;;;10.60;99.90;;;;;;5058528;28;20455;-75
2022/09/30 07:07:27;;;;;;;2.43;1.40;;;10.70;99.90;;;;;;5070210;28;20454;-76
2022/09/30 07:09:54;;;;;;;3.33;1.60;;;10.70;99.90;;;;;;5057018;28;20550;-76
2022/09/30 07:12:21;;;;;;;3.43;1.60;;;10.70;99.90;;;;;;5063683;28;20777;-76
2022/09/30 07:14:48;;;;;;;6.00;1.90;;;10.70;99.90;;;;;;5064486;28;20963;-78
2022/09/30 07:17:16;;;;;;;3.87;1.80;;;10.60;99.90;;;;;;5075968;28;20533;-79
2022/09/30 07:19:43;;;;;;;3.60;1.97;;;10.50;99.90;;;;;;5063211;28;20758;-78
2022/09/30 07:22:28;;;;;;;3.37;1.53;;;10.50;99.90;;;;;;5047464;28;20461;-79
2022/09/30 07:25:00;;;;;;;6.80;2.23;;;10.60;99.90;;;;;;5042579;28;20455;-79
2022/09/30 07:27:27;;;;;;;4.60;2.40;;;10.60;99.90;;;;;;5045525;28;20520;-80
2022/09/30 07:29:55;;;;;;;6.73;3.10;;;10.60;99.90;;;;;;5049738;28;20538;-81
2022/09/30 07:32:30;;;;;;;4.17;2.23;;;10.70;99.90;;;;;;5046888;28;20872;-77
2022/09/30 07:34:57;;;;;;;7.30;3.10;;;10.80;99.90;;;;;;5047225;28;20500;-81
2022/09/30 07:37:25;;;;;;;5.63;3.87;;;10.90;99.90;;;;;;5041265;28;20480;-81
2022/09/30 07:39:54;;;;;;;4.20;2.70;;;10.80;99.90;;;;;;5048126;28;20516;-79
2022/09/30 07:42:21;;;;;;;3.93;2.77;;;10.70;99.90;;;;;;5068475;28;20450;-81
2022/09/30 07:44:51;;;;;;;7.33;3.40;;;10.70;99.90;;;;;;5078419;28;20443;-81
2022/09/30 07:47:19;;;;;;;3.70;2.17;;;10.60;99.90;;;;;;5086868;28;20438;-81
2022/09/30 07:49:47;;;;;;;4.70;2.53;;;10.70;99.90;;;;;;5070690;28;20443;-82
2022/09/30 07:52:17;;;;;;;7.90;3.13;;;10.90;99.90;;;;;;5071695;28;20475;-79
2022/09/30 07:54:44;;;;;;;4.97;3.50;;;11.20;99.90;;;;;;5070112;28;20538;-79
2022/09/30 07:57:11;;;;;;;8.03;4.40;;;11.30;99.90;;;;;;5082052;28;20447;-81
2022/09/30 07:59:40;;;;;;;9.10;4.57;;;11.30;99.90;;;;;;5071060;28;20431;-80
2022/09/30 08:02:12;;;;;;;4.70;3.53;;;11.40;99.90;;;;;;5070879;28;20455;-80
2022/09/30 08:04:39;;;;;;;6.53;2.63;;;11.60;98.40;;;;;;5064820;28;20954;-83
2022/09/30 08:07:07;;;;;;;4.30;2.93;;;11.80;93.90;;;;;;5073693;28;20458;-80
2022/09/30 08:09:34;;;;;;;8.53;3.90;;;12.10;87.10;;;;;;5078482;28;20444;-78
2022/09/30 08:12:03;;;;;;;5.23;3.20;;;12.20;52.00;;;;;;5060836;28;20462;-78
2022/09/30 08:14:30;;;;;;;5.73;2.90;;;12.10;55.70;;;;;;5073914;28;20438;-79
2022/09/30 08:16:59;;;;;;;6.83;3.57;;;12.00;58.30;;;;;;5064742;28;20829;-77
2022/09/30 08:19:29;;;;;;;5.87;2.87;;;11.80;77.20;;;;;;5077143;28;20482;-79
2022/09/30 08:21:56;;;;;;;5.43;2.87;;;11.80;68.10;;;;;;5071294;28;20525;-79
2022/09/30 08:24:25;;;;;;;4.73;4.17;;;11.70;86.10;;;;;;5061660;28;20454;-79
2022/09/30 08:26:52;;;;;;;5.67;3.40;;;11.80;87.50;;;;;;5055537;28;20490;-78
2022/09/30 08:29:19;;;;;;;5.10;3.73;;;11.80;73.30;;;;;;5077523;28;20526;-79
2022/09/30 08:31:46;;;;;;;7.00;3.83;;;11.70;80.70;;;;;;5064183;28;20533;-81
2022/09/30 08:34:16;;;;;;;7.17;4.80;;;11.70;90.60;;;;;;5080047;28;20510;-80
2022/09/30 08:36:46;;;;;;;6.93;3.40;;;11.80;93.50;;;;;;5080103;28;20510;-80
2022/09/30 08:39:16;;;;;;;7.20;3.90;;;11.80;90.10;;;;;;5065630;28;20450;-80
2022/09/30 08:41:59;;;;;;;4.93;3.53;;;12.10;75.30;;;;;;5077414;28;20458;-78
2022/09/30 08:44:41;;;;;;;7.73;4.00;;;12.20;71.10;;;;;;5089437;28;20482;-79
2022/09/30 08:47:32;;;;;;;8.07;3.60;;;12.10;58.30;;;;;;5089199;28;20450;-78
2022/09/30 08:50:10;;;;;;;6.90;4.20;;;12.00;73.40;;;;;;5090091;28;20589;-79
2022/09/30 08:52:41;;;;;;;5.70;4.13;;;11.90;76.10;;;;;;5093103;28;20430;-79
2022/09/30 08:55:15;;;;;;;4.93;2.93;;;11.90;80.10;;;;;;5087713;28;20493;-78
2022/09/30 08:57:52;;;;;;;5.03;2.80;;;11.90;88.00;;;;;;5086265;28;20466;-77
2022/09/30 09:00:20;;;;;;;16.27;6.80;;;12.00;87.20;;;;;;5079714;28;20446;-78
2022/09/30 09:02:53;;;;;;;7.27;3.23;;;12.10;73.50;;;;;;5078769;28;20870;-78
2022/09/30 09:05:32;;;;;;;4.20;2.70;;;12.10;77.30;;;;;;5058277;28;20459;-79
2022/09/30 09:08:06;;;;;;;7.23;4.00;;;12.20;81.60;;;;;;5061847;28;20472;-79
2022/09/30 09:10:39;;;;;;;7.20;4.70;;;12.40;64.50;;;;;;5067955;28;20450;-79
2022/09/30 09:13:19;;;;;;;8.40;6.30;;;12.40;50.10;;;;;;5062697;28;20526;-79
2022/09/30 09:15:57;;;;;;;5.20;3.10;;;12.60;49.80;;;;;;5049083;28;20515;-78
2022/09/30 09:18:41;;;;;;;7.10;4.73;;;12.40;51.70;;;;;;5060899;28;20447;-79
2022/09/30 09:21:22;;;;;;;5.13;2.90;;;12.50;46.70;;;;;;5055193;28;20506;-79
2022/09/30 09:23:51;;;;;;;9.10;4.00;;;12.60;52.00;;;;;;5071114;28;20439;-81
2022/09/30 09:26:19;;;;;;;7.20;3.80;;;12.70;39.20;;;;;;5054942;28;20448;-81
2022/09/30 09:28:59;;;;;;;5.63;3.27;;;12.50;34.60;;;;;;5062917;28;20454;-83
2022/09/30 09:31:36;;;;;;;5.13;3.57;;;12.60;46.60;;;;;;5063977;28;20452;-82
2022/09/30 09:34:11;;;;;;;5.03;3.03;;;12.70;39.60;;;;;;5064536;28;20501;-81
2022/09/30 09:36:52;;;;;;;4.00;2.43;;;12.90;28.80;;;;;;5056071;28;20540;-81
2022/09/30 09:39:49;;;;;;;7.37;3.30;;;13.10;9.40;;;;;;5059620;28;20470;-82
2022/09/30 09:42:33;;;;;;;5.67;2.20;;;13.30;1.00;;;;;;5048922;28;20550;-79
2022/09/30 09:45:04;;;;;;;2.20;1.50;;;13.40;1.00;;;;;;5057848;28;20444;-80
2022/09/30 09:47:33;;;;;;;2.70;1.60;;;13.50;1.00;;;;;;5053981;28;20451;-79
2022/09/30 09:50:03;;;;;;;2.10;1.10;;;13.50;1.00;;;;;;5056937;28;20758;-80
2022/09/30 09:52:51;;;;;;;2.00;1.27;;;13.70;1.00;;;;;;5056615;28;20466;-81
2022/09/30 09:55:22;;;;;;;2.20;1.27;;;14.00;1.00;;;;;;5055913;28;20550;-80
2022/09/30 09:58:04;;;;;;;3.83;1.83;;;14.20;1.00;;;;;;5057326;28;20442;-81
2022/09/30 10:03:19;;;;;;;2.73;1.80;;;14.30;1.00;;;;;;5053071;28;20442;-81
2022/09/30 10:05:58;;;;;;;4.07;2.30;;;14.40;1.00;;;;;;5057084;28;20483;-78
2022/09/30 10:08:26;;;;;;;3.20;1.50;;;14.50;1.00;;;;;;5050573;28;20783;-79
2022/09/30 10:10:58;;;;;;;18.13;13.03;;;14.50;1.00;;;;;;5054673;28;20446;-79
2022/09/30 10:13:27;;;;;;;3.40;1.70;;;14.40;1.00;;;;;;5050845;28;20542;-79
2022/09/30 10:15:57;;;;;;;4.73;1.60;;;14.50;1.00;;;;;;5054562;28;20471;-80
2022/09/30 10:18:27;;;;;;;3.57;2.30;;;14.80;1.00;;;;;;5051349;28;20447;-79
2022/09/30 10:20:58;;;;;;;2.20;1.80;;;15.00;1.00;;;;;;5055346;28;20744;-80
2022/09/30 10:23:30;;;;;;;3.13;1.77;;;15.10;1.00;;;;;;5049819;28;20451;-79
2022/09/30 10:26:04;;;;;;;4.40;1.77;;;15.30;1.00;;;;;;5054814;28;20444;-79
2022/09/30 10:28:34;;;;;;;3.97;2.10;;;15.40;1.00;;;;;;5048925;28;20561;-78
2022/09/30 10:31:07;;;;;;;3.10;1.83;;;15.60;99.90;;;;;;5056395;28;20455;-79
2022/09/30 10:33:42;;;;;;;4.63;2.40;;;15.70;99.90;;;;;;5050807;28;20862;-79
2022/09/30 10:36:14;;;;;;;3.00;1.83;;;15.80;1.00;;;;;;5058510;28;20918;-78
2022/09/30 10:38:58;;;;;;;2.57;1.30;;;15.70;1.00;;;;;;5047452;28;20521;-78
2022/09/30 10:41:30;;;;;;;1.93;1.30;;;15.70;76.20;;;;;;5062715;28;20478;-78
2022/09/30 10:44:01;;;;;;;2.83;1.20;;;15.50;1.00;;;;;;5055973;28;20475;-78
2022/09/30 10:46:34;;;;;;;1.20;0.90;;;15.70;99.90;;;;;;5060825;28;21049;-77
2022/09/30 10:49:09;;;;;;;1.67;1.17;;;15.90;99.90;;;;;;5057320;28;20504;-78
2022/09/30 10:51:39;;;;;;;1.90;1.00;;;16.20;1.00;;;;;;5063942;28;20491;-77
2022/09/30 10:54:06;;;;;;;1.40;0.80;;;16.50;1.00;;;;;;5060349;28;20953;-78
2022/09/30 10:56:45;;;;;;;1.37;0.80;;;16.50;1.00;;;;;;5063322;28;20529;-78
2022/09/30 10:59:27;;;;;;;1.93;0.90;;;16.80;1.00;;;;;;5060206;28;20459;-77
2022/09/30 11:02:00;;;;;;;1.47;0.93;;;16.60;1.00;;;;;;5059802;28;20820;-79
2022/09/30 11:04:34;;;;;;;2.33;0.80;;;16.60;1.00;;;;;;5059791;28;20459;-79
2022/09/30 11:07:14;;;;;;;1.67;0.87;;;16.50;1.00;;;;;;5059805;28;20473;-79
2022/09/30 11:09:52;;;;;;;1.60;1.10;;;16.70;99.90;;;;;;5059897;28;20545;-79
2022/09/30 11:12:26;;;;;;;1.10;0.80;;;17.00;1.00;;;;;;5056520;28;20447;-79
2022/09/30 11:15:03;;;;;;;1.13;0.90;;;16.90;1.00;;;;;;5060801;28;20451;-78
2022/09/30 11:17:38;;;;;;;1.07;0.80;;;16.80;1.00;;;;;;5057583;28;20471;-80
2022/09/30 11:20:17;;;;;;;1.10;0.77;;;16.70;1.00;;;;;;5048807;28;20454;-79
2022/09/30 11:22:50;;;;;;;1.10;0.70;;;16.60;99.90;;;;;;5058334;28;20455;-78
2022/09/30 11:25:24;;;;;;;1.00;0.80;;;17.00;99.90;;;;;;5057284;28;20439;-77
2022/09/30 11:28:18;;;;;;;0.90;0.60;;;17.30;99.90;;;;;;5054251;28;20446;-78
2022/09/30 11:30:54;;;;;;;0.70;0.57;;;17.60;99.90;;;;;;5058153;28;20454;-78
2022/09/30 11:33:39;;;;;;;1.37;0.67;;;17.60;99.90;;;;;;5054577;28;20482;-78
2022/09/30 11:36:21;;;;;;;0.97;0.53;;;17.80;99.90;;;;;;5057395;28;20746;-78
2022/09/30 11:39:25;;;;;;;1.20;0.60;;;17.80;41.20;;;;;;5054265;28;20455;-77
2022/09/30 11:42:01;;;;;;;0.60;0.40;;;17.70;1.00;;;;;;5049216;28;20776;-77
2022/09/30 11:44:34;;;;;;;1.43;0.53;;;17.20;1.00;;;;;;5040260;28;20601;-78
2022/09/30 11:47:20;;;;;;;0.80;0.53;;;17.20;52.00;;;;;;5058234;28;20522;-78
2022/09/30 11:50:22;;;;;;;1.00;0.60;;;17.20;99.90;;;;;;5038705;28;20452;-77
2022/09/30 11:53:00;;;;;;;1.00;0.57;;;17.30;99.90;;;;;;5031038;28;20490;-77
2022/09/30 11:55:43;;;;;;;1.33;0.80;;;17.60;99.90;;;;;;5057588;28;20451;-78
2022/09/30 11:58:12;;;;;;;1.20;0.70;;;17.70;99.90;;;;;;5054155;28;20491;-78
2022/09/30 12:00:43;;;;;;;1.57;0.60;;;17.50;99.90;;;;;;5058087;28;20491;-78
2022/09/30 12:03:16;;;;;;;0.93;0.50;;;17.30;99.90;;;;;;5054743;28;20788;-80
2022/09/30 12:05:51;;;;;;;0.93;0.60;;;17.50;99.90;;;;;;5059886;28;20875;-76
2022/09/30 12:08:21;;;;;;;0.90;0.60;;;17.80;99.90;;;;;;5055376;28;20466;-77
2022/09/30 12:10:53;;;;;;;0.80;0.50;;;17.90;99.90;;;;;;5058036;28;20447;-78
2022/09/30 12:13:24;;;;;;;1.00;0.60;;;18.00;69.20;;;;;;5054471;28;20482;-78
2022/09/30 12:15:54;;;;;;;1.00;0.50;;;18.00;44.00;;;;;;5057291;28;20451;-77
2022/09/30 12:18:27;;;;;;;0.90;0.70;;;18.10;24.90;;;;;;5054488;28;20483;-78
2022/09/30 12:20:59;;;;;;;1.20;0.70;;;18.00;40.30;;;;;;5057565;28;20845;-78
2022/09/30 12:23:33;;;;;;;0.73;0.50;;;17.80;54.90;;;;;;5055988;28;20516;-77
2022/09/30 12:26:01;;;;;;;0.70;0.50;;;17.70;60.50;;;;;;5058308;28;20451;-77
2022/09/30 12:31:51;;;;;;;0.70;0.50;;;17.60;51.90;;;;;;5057182;28;20422;-79
2022/09/30 12:34:35;;;;;;;0.80;0.60;;;17.60;99.90;;;;;;5022768;28;20472;-78
2022/09/30 12:37:17;;;;;;;1.57;0.63;;;17.70;96.10;;;;;;5058200;28;20486;-77
2022/09/30 12:40:05;;;;;;;1.20;0.77;;;17.70;99.50;;;;;;5038573;28;21128;-76
2022/09/30 12:42:44;;;;;;;0.80;0.57;;;17.80;99.90;;;;;;5056334;28;20573;-77
2022/09/30 12:45:40;;;;;;;0.83;0.50;;;17.70;61.80;;;;;;5058305;28;20463;-79
2022/09/30 12:48:12;;;;;;;2.50;0.60;;;17.90;43.20;;;;;;5048264;28;20460;-77
2022/09/30 12:50:44;;;;;;;2.07;0.90;;;17.90;1.00;;;;;;5054797;28;20450;-77
2022/09/30 12:53:19;;;;;;;0.80;0.50;;;17.50;1.00;;;;;;5055655;28;20446;-76
2022/09/30 12:55:46;;;;;;;0.70;0.40;;;17.10;1.00;;;;;;5058072;28;20445;-76
2022/09/30 12:58:19;;;;;;;1.10;0.60;;;17.00;24.30;;;;;;5052616;28;20468;-77
2022/09/30 13:01:00;;;;;;;0.70;0.50;;;17.10;43.20;;;;;;5054549;28;20201;-77
2022/09/30 13:03:27;;;;;;;1.07;0.40;;;17.20;62.00;;;;;;5054123;28;20455;-76
2022/09/30 13:05:56;;;;;;;1.37;0.70;;;17.30;1.00;;;;;;5056203;28;20542;-77
2022/09/30 13:08:46;;;;;;;0.80;0.40;;;17.20;1.00;;;;;;5046668;28;20903;-76
2022/09/30 13:11:36;;;;;;;0.57;0.37;;;17.20;99.90;;;;;;5054346;28;20453;-76
2022/09/30 13:14:17;;;;;;;1.17;0.40;;;17.20;1.00;;;;;;5050602;28;20438;-77
2022/09/30 13:17:22;;;;;;;0.87;0.30;;;17.10;1.00;;;;;;5057160;28;20560;-76
2022/09/30 13:19:51;;;;;;;0.80;0.50;;;17.10;1.00;;;;;;5055008;28;21064;-75
2022/09/30 13:22:57;;;;;;;0.87;0.40;;;17.10;1.00;;;;;;5052118;28;20840;-75
2022/09/30 13:25:26;;;;;;;0.60;0.40;;;17.20;47.00;;;;;;5056392;28;20428;-75